Time;durP1;ratioP1;P1;durP2;ratioP2;P2;SDS_P1;SDS_P2;PMS_P1;PMS_P2;Temp;Humidity;BMP_temperature;BMP_pressure;BME280_temperature;BME280_humidity;BME280_pressure;Samples;Min_cycle;Max_cycle;Signal;HPM_P1;HPM_P2
2022/01/19 00:01:00;;;;;;;12.53;11.50;;;;;;;-2.92;67.20;93952.06;4992148;28;20236;-80
2022/01/19 00:03:26;;;;;;;14.00;12.83;;;;;;;-2.96;66.74;93938.06;4992469;28;20196;-79
2022/01/19 00:05:52;;;;;;;13.20;11.87;;;;;;;-3.11;67.57;93949.88;4993203;28;20207;-80
2022/01/19 00:08:21;;;;;;;12.93;11.83;;;;;;;-3.10;67.04;93933.63;4992429;28;20183;-79
2022/01/19 00:10:48;;;;;;;13.87;12.47;;;;;;;-3.34;67.68;93914.06;4991699;28;20302;-79
2022/01/19 00:13:14;;;;;;;12.73;11.73;;;;;;;-3.11;67.42;93956.78;4993240;28;20180;-79
2022/01/19 00:15:40;;;;;;;15.70;13.60;;;;;;;-2.91;68.75;93978.44;4991570;28;20235;-79
2022/01/19 00:18:06;;;;;;;20.13;13.50;;;;;;;-3.06;66.24;93940.00;4993857;28;20216;-79
2022/01/19 00:20:33;;;;;;;14.57;13.37;;;;;;;-2.95;66.31;93977.16;4976849;28;20224;-79
2022/01/19 00:23:00;;;;;;;13.77;12.70;;;;;;;-2.81;65.76;93984.94;4991694;28;20184;-79
2022/01/19 00:25:26;;;;;;;13.60;12.53;;;;;;;-2.98;66.56;93973.16;4992081;28;20196;-78
2022/01/19 00:27:52;;;;;;;14.47;13.37;;;;;;;-3.07;66.90;93953.72;4994794;28;20192;-79
2022/01/19 00:30:17;;;;;;;14.83;13.43;;;;;;;-2.96;69.89;93963.59;4991861;28;20251;-79
2022/01/19 00:32:43;;;;;;;14.00;12.67;;;;;;;-3.08;66.74;93967.44;4992692;28;20187;-80
2022/01/19 00:35:10;;;;;;;22.03;17.80;;;;;;;-2.99;67.37;93979.25;4991538;28;20752;-80
2022/01/19 00:37:36;;;;;;;15.83;14.23;;;;;;;-3.06;67.34;93985.16;4992037;28;20228;-79
2022/01/19 00:40:04;;;;;;;14.67;13.53;;;;;;;-3.05;67.77;93994.41;4992172;28;20206;-79
2022/01/19 00:42:29;;;;;;;19.77;15.57;;;;;;;-3.21;68.21;93977.38;4991972;28;20258;-79
2022/01/19 00:44:55;;;;;;;15.67;14.10;;;;;;;-3.34;68.22;93957.44;4991685;28;20208;-79
2022/01/19 00:47:20;;;;;;;14.20;12.97;;;;;;;-3.02;68.41;94000.00;4993166;28;20231;-79
2022/01/19 00:49:46;;;;;;;12.93;11.67;;;;;;;-2.97;68.15;93990.09;4992518;28;20200;-79
2022/01/19 00:52:13;;;;;;;17.37;12.83;;;;;;;-3.03;68.41;94007.81;4991276;28;20231;-78
2022/01/19 00:54:39;;;;;;;12.77;11.70;;;;;;;-3.11;68.73;93998.41;5005119;28;20281;-79
2022/01/19 00:57:06;;;;;;;13.50;12.57;;;;;;;-2.98;68.84;94020.91;4990658;28;20227;-79
2022/01/19 00:59:32;;;;;;;13.90;12.87;;;;;;;-3.25;68.80;93967.66;4991147;28;20195;-80
2022/01/19 01:01:58;;;;;;;13.30;12.20;;;;;;;-3.41;68.25;93955.72;4991580;28;20220;-78
2022/01/19 01:04:24;;;;;;;14.87;13.87;;;;;;;-3.22;68.50;93991.09;4992190;28;20192;-79
2022/01/19 01:06:49;;;;;;;13.07;11.87;;;;;;;-3.10;69.08;94014.53;4991053;28;20258;-80
2022/01/19 01:09:15;;;;;;;13.37;12.47;;;;;;;-3.21;68.71;94005.47;4991454;28;20202;-79
2022/01/19 01:11:48;;;;;;;17.13;13.60;;;;;;;-3.17;69.41;94018.69;4991201;28;20240;-79
2022/01/19 01:16:58;;;;;;;13.90;12.70;;;;;;;-3.11;69.36;94043.59;4991193;28;20228;-79
2022/01/19 01:19:23;;;;;;;14.57;13.23;;;;;;;-3.23;69.25;94027.78;4992239;28;20239;-81
2022/01/19 01:21:49;;;;;;;14.53;13.43;;;;;;;-3.11;68.75;94018.84;4991911;28;20227;-79
2022/01/19 01:24:14;;;;;;;10.50;9.90;;;;;;;-3.25;68.48;93993.19;4991460;28;20207;-79
2022/01/19 01:26:40;;;;;;;36.47;19.03;;;;;;;-3.17;68.49;94014.38;4990967;28;20326;-79
2022/01/19 01:29:05;;;;;;;13.33;12.13;;;;;;;-3.17;69.38;94023.78;4991145;28;20192;-79
2022/01/19 01:31:31;;;;;;;15.27;13.67;;;;;;;-3.21;70.00;93997.81;4991957;28;20227;-79
2022/01/19 01:33:56;;;;;;;12.20;11.30;;;;;;;-3.26;70.22;93974.50;4990224;28;20206;-79
2022/01/19 01:36:22;;;;;;;13.83;12.63;;;;;;;-3.06;68.09;93988.50;4990874;28;20216;-79
2022/01/19 01:38:47;;;;;;;15.77;14.80;;;;;;;-3.13;68.22;93995.25;4990340;28;20202;-78
2022/01/19 01:41:14;;;;;;;13.97;12.60;;;;;;;-3.11;68.57;93993.31;4990893;28;20228;-79
2022/01/19 01:43:42;;;;;;;14.50;12.80;;;;;;;-3.09;68.61;94001.59;4990772;28;20219;-79
2022/01/19 01:46:41;;;;;;;17.00;13.63;;;;;;;-3.19;68.84;94000.97;4989776;28;20287;-78
2022/01/19 01:49:14;;;;;;;13.77;12.53;;;;;;;-3.18;68.90;93997.47;4989809;28;20184;-79
2022/01/19 01:54:23;;;;;;;13.10;11.93;;;;;;;-3.14;68.52;93972.41;4991581;28;20199;-79
2022/01/19 01:56:49;;;;;;;11.63;11.13;;;;;;;-3.14;66.00;93960.44;4991315;28;20231;-79
2022/01/19 01:59:14;;;;;;;11.87;11.07;;;;;;;-3.16;66.24;93972.59;4974334;28;21104;-79
2022/01/19 02:01:40;;;;;;;13.27;11.93;;;;;;;-3.15;65.75;93975.91;4991551;28;20234;-82
2022/01/19 02:04:06;;;;;;;14.43;13.33;;;;;;;-3.14;66.41;93960.44;4991274;28;20195;-79
2022/01/19 02:06:37;;;;;;;12.30;11.50;;;;;;;-3.27;65.75;93930.28;4990437;28;20248;-79
2022/01/19 02:09:14;;;;;;;14.07;12.97;;;;;;;-3.06;66.17;93959.59;4975178;28;20240;-80
2022/01/19 02:22:54;;;;;;;12.60;11.53;;;;;;;-3.13;66.57;93923.75;4991746;28;20277;-79
2022/01/19 02:25:26;;;;;;;13.20;12.30;;;;;;;-3.05;65.58;93918.59;4990324;28;20207;-79
2022/01/19 02:41:33;;;;;;;13.43;12.23;;;;;;;-3.00;66.06;93929.09;4990629;28;20234;-79
2022/01/19 02:43:59;;;;;;;12.40;11.40;;;;;;;-3.03;65.66;93903.91;4991777;28;20172;-79
2022/01/19 02:49:14;;;;;;;15.13;13.03;;;;;;;-3.02;64.81;93935.34;4992219;28;20204;-79
2022/01/19 02:51:39;;;;;;;22.10;19.67;;;;;;;-3.04;64.66;93925.31;4990941;28;20288;-80
2022/01/19 02:54:05;;;;;;;13.07;12.27;;;;;;;-3.01;64.26;93919.88;4991057;28;20191;-79
2022/01/19 02:56:34;;;;;;;15.07;13.83;;;;;;;-3.03;64.62;93924.34;4991228;28;20224;-78
2022/01/19 02:59:13;;;;;;;13.27;12.53;;;;;;;-2.95;64.19;93931.97;4989915;28;20194;-80
2022/01/19 03:09:46;;;;;;;13.07;11.77;;;;;;;-3.02;65.24;93946.38;4992035;28;20198;-79
2022/01/19 03:12:11;;;;;;;12.83;11.80;;;;;;;-3.21;64.97;93911.00;4990987;28;20224;-78
2022/01/19 03:14:38;;;;;;;11.63;10.63;;;;;;;-2.97;64.38;93923.66;4991307;28;20199;-79
2022/01/19 03:17:05;;;;;;;12.17;11.30;;;;;;;-3.12;65.13;93925.31;4990845;28;20224;-79
2022/01/19 03:19:31;;;;;;;13.43;12.37;;;;;;;-3.05;65.05;93922.91;4991785;28;20243;-79
2022/01/19 03:21:57;;;;;;;13.47;12.37;;;;;;;-2.91;64.69;93922.22;4991193;28;20327;-79
2022/01/19 03:24:23;;;;;;;12.33;11.33;;;;;;;-2.93;64.97;93924.94;4995674;28;20184;-79
2022/01/19 03:26:49;;;;;;;12.53;11.50;;;;;;;-3.05;63.65;93903.25;4981105;28;20249;-79
2022/01/19 03:29:14;;;;;;;12.33;11.23;;;;;;;-3.18;64.42;93897.91;4995081;28;20259;-78
2022/01/19 03:31:40;;;;;;;13.93;12.87;;;;;;;-3.11;64.99;93914.13;4994014;28;20259;-76
2022/01/19 03:34:06;;;;;;;11.90;11.00;;;;;;;-3.19;65.18;93916.72;4995096;28;20203;-81
2022/01/19 03:36:33;;;;;;;12.63;11.33;;;;;;;-3.20;65.77;93933.00;4993972;28;20236;-81
2022/01/19 03:38:58;;;;;;;11.40;10.50;;;;;;;-3.13;66.20;93933.16;4994588;28;20197;-81
2022/01/19 03:41:24;;;;;;;12.57;11.60;;;;;;;-3.05;66.05;93933.91;4993296;28;20211;-82
2022/01/19 03:43:50;;;;;;;13.27;12.03;;;;;;;-3.07;65.81;93943.50;4977467;28;20207;-80
2022/01/19 03:46:16;;;;;;;14.10;12.70;;;;;;;-3.05;65.51;93945.91;4994386;28;20262;-81
2022/01/19 03:49:29;;;;;;;12.70;11.80;;;;;;;-3.06;66.41;93950.19;4995863;28;20199;-81
2022/01/19 03:51:30;;;;;;;13.80;12.43;;;;;;;-3.08;68.15;93915.59;4987479;28;20228;-79
2022/01/19 03:53:55;;;;;;;15.13;13.33;;;;;;;-3.04;66.23;93934.72;4993947;28;20621;-80
2022/01/19 03:56:21;;;;;;;14.60;13.37;;;;;;;-3.04;65.94;93921.94;4993431;28;20724;-81
2022/01/19 03:58:46;;;;;;;15.77;13.63;;;;;;;-3.15;66.08;93902.66;4994454;28;20204;-81
2022/01/19 04:01:12;;;;;;;15.33;14.17;;;;;;;-3.39;66.43;93883.13;4992659;28;20224;-81
2022/01/19 04:06:23;;;;;;;12.03;11.20;;;;;;;-3.03;66.44;93949.88;4993677;28;20240;-80
2022/01/19 04:08:49;;;;;;;12.03;11.03;;;;;;;-3.00;65.62;93948.75;4994477;28;20196;-81
2022/01/19 04:11:17;;;;;;;13.37;12.13;;;;;;;-3.20;66.53;93932.19;4993010;28;20227;-80
2022/01/19 04:16:26;;;;;;;15.27;11.37;;;;;;;-3.10;66.40;93959.16;4995942;28;20924;-80
2022/01/19 04:19:01;;;;;;;11.77;11.10;;;;;;;-3.15;66.92;93953.75;4994695;28;20275;-81
2022/01/19 04:21:26;;;;;;;12.97;11.60;;;;;;;-3.07;66.14;93969.06;4994426;28;20951;-80
2022/01/19 04:23:52;;;;;;;14.20;13.00;;;;;;;-3.04;65.93;93961.06;4993073;28;20200;-81
2022/01/19 04:26:17;;;;;;;16.57;13.33;;;;;;;-3.24;66.59;93952.16;4992666;28;20239;-80
2022/01/19 04:28:43;;;;;;;12.67;11.53;;;;;;;-3.08;65.71;93967.44;4994003;28;20271;-80
2022/01/19 04:31:08;;;;;;;14.10;12.80;;;;;;;-3.12;65.37;93950.06;4992758;28;20252;-80
2022/01/19 04:33:34;;;;;;;12.90;11.83;;;;;;;-3.08;65.45;93947.00;4992512;28;20188;-81
2022/01/19 04:36:20;;;;;;;14.93;13.37;;;;;;;-2.85;68.07;93977.78;4994019;28;20269;-81
2022/01/19 04:54:50;;;;;;;12.10;10.87;;;;;;;-2.75;65.56;93994.50;4993480;28;20199;-78
2022/01/19 05:05:30;;;;;;;12.10;11.50;;;;;;;-3.02;65.92;93991.53;4992537;28;20199;-81
2022/01/19 05:08:02;;;;;;;12.77;11.67;;;;;;;-3.05;66.04;94004.63;4992014;28;20223;-79
2022/01/19 05:15:51;;;;;;;12.30;11.33;;;;;;;-2.99;69.05;94032.09;4991099;28;20263;-79
2022/01/19 05:18:18;;;;;;;13.07;11.93;;;;;;;-2.99;68.32;94009.91;4993051;28;20196;-79
2022/01/19 05:20:47;;;;;;;13.57;12.37;;;;;;;-3.03;66.24;94000.16;4992200;28;20307;-79
2022/01/19 05:23:14;;;;;;;12.63;11.83;;;;;;;-2.98;66.16;94019.16;4991766;28;20196;-80
2022/01/19 05:25:40;;;;;;;13.13;12.23;;;;;;;-3.16;67.56;93964.94;4991474;28;20224;-79
2022/01/19 05:28:06;;;;;;;14.03;12.53;;;;;;;-3.00;67.28;94002.41;4991809;28;20768;-78
2022/01/19 05:30:31;;;;;;;12.53;11.37;;;;;;;-3.04;66.14;94019.81;4992040;28;20249;-79
2022/01/19 05:32:57;;;;;;;12.67;11.97;;;;;;;-3.07;66.67;94030.34;4990501;28;20191;-79
2022/01/19 05:35:24;;;;;;;13.07;11.93;;;;;;;-3.17;67.11;94024.59;4991109;28;20185;-79
2022/01/19 05:37:50;;;;;;;12.40;11.40;;;;;;;-3.22;67.04;94014.06;4990983;28;20196;-88
2022/01/19 05:40:15;;;;;;;12.67;11.80;;;;;;;-2.93;68.92;94042.44;4990483;28;20188;-79
2022/01/19 05:42:41;;;;;;;12.67;11.80;;;;;;;-3.05;70.62;94002.84;4990188;28;20196;-81
2022/01/19 05:45:07;;;;;;;14.23;12.33;;;;;;;-2.94;68.32;94022.19;4989077;28;20260;-79
2022/01/19 05:47:33;;;;;;;13.80;12.70;;;;;;;-2.98;70.23;94049.78;4989201;28;20216;-81
2022/01/19 05:49:59;;;;;;;14.67;13.83;;;;;;;-3.12;69.47;94053.00;4991126;28;20319;-77
2022/01/19 05:52:24;;;;;;;14.30;12.73;;;;;;;-3.12;69.17;94058.13;4989175;28;20231;-77
2022/01/19 05:54:50;;;;;;;13.87;12.80;;;;;;;-3.23;69.78;94055.88;4990291;28;20204;-81
2022/01/19 05:57:15;;;;;;;13.60;12.60;;;;;;;-3.29;69.89;94048.88;4989421;28;20224;-78
2022/01/19 05:59:42;;;;;;;13.40;12.60;;;;;;;-3.07;70.49;94070.41;4990644;28;20184;-78
2022/01/19 06:02:07;;;;;;;14.87;13.50;;;;;;;-3.29;70.73;94053.97;4988317;28;20224;-79
2022/01/19 06:04:33;;;;;;;16.37;13.50;;;;;;;-3.20;70.96;94055.56;4987481;28;20227;-78
2022/01/19 06:07:01;;;;;;;15.20;13.67;;;;;;;-3.30;70.45;94039.63;4990739;28;20220;-77
2022/01/19 06:12:07;;;;;;;13.20;12.27;;;;;;;-3.11;70.29;94072.47;4985923;28;20230;-75
2022/01/19 06:14:34;;;;;;;13.53;12.57;;;;;;;-2.93;73.23;94062.88;4984940;28;20211;-75
2022/01/19 06:17:00;;;;;;;13.80;13.07;;;;;;;-2.75;72.67;94053.25;4989113;28;20227;-74
2022/01/19 06:19:26;;;;;;;14.53;13.17;;;;;;;-2.79;68.86;94054.56;4989319;28;20223;-76
2022/01/19 06:21:52;;;;;;;18.40;13.50;;;;;;;-3.05;69.72;94043.72;4990164;28;20223;-76
2022/01/19 06:24:17;;;;;;;13.93;12.47;;;;;;;-2.98;69.81;94072.78;4990555;28;20199;-76
2022/01/19 06:26:43;;;;;;;14.43;13.33;;;;;;;-2.98;73.18;94070.22;4989000;28;20238;-76
2022/01/19 06:29:08;;;;;;;15.03;13.17;;;;;;;-3.08;70.13;94064.47;4989995;28;20255;-77
2022/01/19 06:31:34;;;;;;;15.43;14.03;;;;;;;-3.02;70.61;94068.16;4988448;28;20231;-77
2022/01/19 06:33:59;;;;;;;12.80;11.93;;;;;;;-2.94;70.38;94065.59;4988926;28;20200;-76
2022/01/19 06:36:24;;;;;;;13.97;12.67;;;;;;;-2.93;70.28;94075.66;4990118;28;20219;-74
2022/01/19 06:38:50;;;;;;;13.83;12.50;;;;;;;-2.91;71.27;94063.50;4989935;28;20206;-73
2022/01/19 06:41:16;;;;;;;15.13;13.70;;;;;;;-2.67;71.26;94093.34;4989713;28;20224;-75
2022/01/19 06:43:41;;;;;;;12.33;11.63;;;;;;;-2.46;70.21;94102.06;4990094;28;21016;-76
2022/01/19 06:46:07;;;;;;;14.17;12.70;;;;;;;-2.75;70.14;94083.13;4989256;28;20239;-76
2022/01/19 06:48:32;;;;;;;13.57;12.30;;;;;;;-2.70;69.23;94086.00;4989267;28;20220;-75
2022/01/19 06:50:58;;;;;;;13.93;12.33;;;;;;;-2.71;69.50;94077.56;4972921;28;20245;-75
2022/01/19 06:53:23;;;;;;;13.53;12.30;;;;;;;-2.61;69.88;94085.00;4990355;28;20208;-77
2022/01/19 06:55:49;;;;;;;13.10;11.93;;;;;;;-2.67;69.64;94066.03;4990017;28;20231;-75
2022/01/19 06:58:14;;;;;;;16.93;13.93;;;;;;;-2.54;70.48;94074.00;4989536;28;20224;-75
2022/01/19 07:00:40;;;;;;;16.33;14.47;;;;;;;-2.55;69.15;94085.16;4999938;28;20256;-74
2022/01/19 07:03:06;;;;;;;17.93;15.70;;;;;;;-2.59;69.23;94078.00;4966380;28;20252;-75
2022/01/19 07:05:31;;;;;;;14.70;13.50;;;;;;;-2.77;68.96;94037.28;4969721;28;20216;-75
2022/01/19 07:07:58;;;;;;;15.10;13.70;;;;;;;-2.67;68.58;94044.78;4970473;28;20695;-78
2022/01/19 07:10:24;;;;;;;16.17;14.63;;;;;;;-2.44;68.50;94068.66;4970717;28;20232;-77
2022/01/19 07:12:51;;;;;;;15.07;13.57;;;;;;;-2.64;69.14;94037.59;4969945;28;20200;-78
2022/01/19 07:15:16;;;;;;;17.43;15.50;;;;;;;-2.38;70.94;94052.69;4971059;28;20228;-78
2022/01/19 07:17:42;;;;;;;18.07;14.73;;;;;;;-2.46;68.43;94055.28;4970559;28;20234;-76
2022/01/19 07:20:09;;;;;;;15.80;14.23;;;;;;;-2.66;68.33;94024.16;4953087;28;20193;-83
2022/01/19 07:22:34;;;;;;;13.73;12.33;;;;;;;-2.52;67.45;94027.81;4970205;28;20228;-82
2022/01/19 07:25:00;;;;;;;15.00;13.77;;;;;;;-2.44;68.29;94043.09;4970673;28;20201;-80
2022/01/19 07:27:26;;;;;;;19.27;16.00;;;;;;;-2.38;68.01;94022.00;4970636;28;20235;-82
2022/01/19 07:29:52;;;;;;;15.70;14.13;;;;;;;-2.24;66.54;94045.09;4968817;28;20308;-82
2022/01/19 07:32:19;;;;;;;16.70;14.43;;;;;;;-2.39;66.79;94035.75;4986148;28;20228;-82
2022/01/19 07:34:44;;;;;;;13.80;12.60;;;;;;;-2.47;67.23;94022.97;4989687;28;20192;-82
2022/01/19 07:37:11;;;;;;;16.77;13.27;;;;;;;-2.13;69.71;94061.84;4988082;28;20222;-83
2022/01/19 07:39:37;;;;;;;13.90;12.63;;;;;;;-2.07;68.09;94036.38;4990142;28;20180;-82
2022/01/19 07:42:03;;;;;;;15.37;14.20;;;;;;;-2.04;67.92;94051.41;4987708;28;20227;-82
2022/01/19 07:44:28;;;;;;;15.37;13.83;;;;;;;-2.34;65.65;94018.97;4987095;28;20208;-79
2022/01/19 07:46:54;;;;;;;14.27;13.13;;;;;;;-2.66;65.91;93957.72;4990938;28;20300;-80
2022/01/19 07:49:19;;;;;;;13.10;11.90;;;;;;;-2.52;66.28;93992.81;4989392;28;20201;-79
2022/01/19 07:51:45;;;;;;;14.57;13.37;;;;;;;-2.59;65.67;93979.09;4987794;28;20232;-81
2022/01/19 07:54:10;;;;;;;15.33;12.57;;;;;;;-2.10;65.75;94043.63;4987545;28;20316;-81
2022/01/19 07:56:36;;;;;;;15.20;13.60;;;;;;;-1.96;66.31;94064.16;4987031;28;21276;-85
2022/01/19 07:59:01;;;;;;;15.43;13.53;;;;;;;-2.09;65.27;94069.03;4972256;28;20203;-83
2022/01/19 08:01:30;;;;;;;13.47;12.17;;;;;;;-2.59;65.61;93968.09;4986736;28;20232;-88
2022/01/19 08:03:57;;;;;;;14.27;12.87;;;;;;;-2.20;65.95;94015.69;4988635;28;20203;-84
2022/01/19 08:06:22;;;;;;;14.73;13.43;;;;;;;-2.36;66.45;93976.59;4987548;28;20267;-81
2022/01/19 08:08:47;;;;;;;13.83;12.60;;;;;;;-1.90;64.87;94068.59;4978791;28;20200;-86
2022/01/19 08:11:13;;;;;;;16.63;14.70;;;;;;;-2.30;64.80;93983.59;4980217;28;20232;-85
2022/01/19 08:13:39;;;;;;;14.53;13.13;;;;;;;-2.09;64.94;94017.06;5008196;28;20288;-86
2022/01/19 08:16:04;;;;;;;14.33;12.87;;;;;;;-1.69;64.90;94055.22;4991744;28;20267;-85
2022/01/19 08:18:30;;;;;;;16.50;12.23;;;;;;;-1.82;63.95;94032.75;4994572;28;20195;-86
2022/01/19 08:20:55;;;;;;;14.93;13.43;;;;;;;-1.93;63.14;94022.88;4994512;28;20875;-87
2022/01/19 08:23:21;;;;;;;16.17;14.07;;;;;;;-1.88;63.32;94007.81;4989807;28;20266;-86
2022/01/19 08:25:46;;;;;;;15.60;13.73;;;;;;;-1.53;63.50;94054.31;4988951;28;20236;-86
2022/01/19 08:28:12;;;;;;;14.90;13.03;;;;;;;-1.94;63.28;93985.47;4988549;28;20191;-86
2022/01/19 08:30:38;;;;;;;14.90;13.47;;;;;;;-1.52;62.24;94063.59;4971697;28;20244;-86
2022/01/19 08:33:04;;;;;;;14.60;12.50;;;;;;;-2.11;62.65;93989.09;4976976;28;20192;-85
2022/01/19 08:35:30;;;;;;;14.57;13.17;;;;;;;-1.74;62.31;94027.56;4976034;28;20191;-83
2022/01/19 08:37:55;;;;;;;14.73;13.37;;;;;;;-1.63;62.95;94038.41;4980282;28;20193;-85
2022/01/19 08:40:26;;;;;;;14.20;13.07;;;;;;;-1.83;62.79;93997.09;4976034;28;20272;-85
2022/01/19 08:42:52;;;;;;;14.47;13.17;;;;;;;-1.80;62.91;93979.63;4990924;28;20196;-85
2022/01/19 08:45:18;;;;;;;13.00;11.73;;;;;;;-1.44;61.72;94041.28;4989726;28;20255;-85
2022/01/19 08:47:43;;;;;;;13.13;12.23;;;;;;;-1.53;61.13;93992.88;4991654;28;20813;-84
2022/01/19 08:50:12;;;;;;;14.07;12.67;;;;;;;-1.21;61.12;94031.03;4975663;28;20200;-85
2022/01/19 08:52:38;;;;;;;13.30;12.10;;;;;;;-1.40;60.72;94008.47;4990762;28;20247;-81
2022/01/19 08:55:05;;;;;;;13.80;12.90;;;;;;;-1.70;60.37;93977.63;4991461;28;20199;-84
2022/01/19 08:57:30;;;;;;;13.90;12.70;;;;;;;-1.21;60.88;94039.50;4972701;28;20877;-81
2022/01/19 08:59:56;;;;;;;18.77;13.90;;;;;;;-1.40;60.24;93988.75;4990039;28;20192;-83
2022/01/19 09:02:21;;;;;;;14.90;13.53;;;;;;;-1.84;59.35;93931.53;4990953;28;20228;-82
2022/01/19 09:04:47;;;;;;;14.83;13.53;;;;;;;-1.17;59.96;94051.03;4992774;28;20188;-82
2022/01/19 09:07:13;;;;;;;14.80;13.33;;;;;;;-0.99;59.37;94053.25;4990423;28;20228;-79
2022/01/19 09:09:39;;;;;;;14.07;12.77;;;;;;;-0.86;60.29;94045.78;5005843;28;20247;-77
2022/01/19 09:12:04;;;;;;;14.80;12.60;;;;;;;-0.75;59.75;94047.91;4990880;28;20234;-80
2022/01/19 09:14:31;;;;;;;13.93;13.03;;;;;;;-1.00;59.21;94042.22;4991927;28;20204;-78
2022/01/19 09:16:57;;;;;;;15.00;12.50;;;;;;;-1.16;59.17;93993.69;4990654;28;20236;-78
2022/01/19 09:19:23;;;;;;;16.73;13.90;;;;;;;-1.13;59.41;93974.59;4990991;28;20195;-78
2022/01/19 09:21:50;;;;;;;14.73;13.40;;;;;;;-0.66;59.05;94029.72;4992175;28;20299;-79
2022/01/19 09:24:16;;;;;;;14.03;12.67;;;;;;;-0.76;58.21;94038.63;4973781;28;20298;-78
2022/01/19 09:26:43;;;;;;;14.97;13.47;;;;;;;-0.71;58.22;94031.19;4991463;28;20327;-76
2022/01/19 09:29:09;;;;;;;15.20;13.73;;;;;;;-0.70;57.99;94007.19;4991787;28;20199;-76
2022/01/19 09:31:35;;;;;;;14.00;12.83;;;;;;;-0.71;57.61;94000.44;4989954;28;20454;-76
2022/01/19 09:34:09;;;;;;;14.27;13.00;;;;;;;-0.59;58.45;94022.13;4990224;28;20252;-76
2022/01/19 09:36:44;;;;;;;13.53;12.07;;;;;;;-0.89;57.69;94005.13;4990000;28;20327;-76
2022/01/19 09:39:10;;;;;;;14.93;13.60;;;;;;;-0.57;58.19;94023.53;4991347;28;20284;-76
2022/01/19 09:41:35;;;;;;;13.33;12.43;;;;;;;-0.65;56.96;94010.78;4990632;28;20224;-76
2022/01/19 09:44:01;;;;;;;14.57;13.20;;;;;;;-0.76;57.17;93979.66;4991242;28;20256;-76
2022/01/19 09:46:27;;;;;;;14.37;13.07;;;;;;;-0.36;58.76;93999.75;4989864;28;20224;-79
2022/01/19 09:48:52;;;;;;;15.00;13.80;;;;;;;-0.16;56.99;93980.25;4990984;28;20200;-85
2022/01/19 09:51:18;;;;;;;14.57;13.20;;;;;;;0.04;57.99;93994.09;4990981;28;20239;-86
2022/01/19 09:53:45;;;;;;;14.23;12.97;;;;;;;-0.02;56.60;93987.88;4990940;28;20291;-80
2022/01/19 09:56:10;;;;;;;13.33;11.93;;;;;;;0.03;56.91;93991.69;4990152;28;20231;-81
2022/01/19 09:58:36;;;;;;;16.80;13.40;;;;;;;-0.44;57.91;93976.75;4992857;28;20215;-79
2022/01/19 10:01:02;;;;;;;19.23;13.67;;;;;;;-0.59;58.56;93983.66;4988977;28;20314;-79
2022/01/19 10:03:30;;;;;;;13.77;12.57;;;;;;;-0.41;59.64;94000.28;4990735;28;20216;-79
2022/01/19 10:06:14;;;;;;;13.60;12.40;;;;;;;-0.61;59.00;93980.47;4990157;28;20228;-80
2022/01/19 10:08:40;;;;;;;14.90;13.57;;;;;;;-0.63;58.82;93956.75;4992152;28;20192;-79
2022/01/19 10:16:58;;;;;;;15.93;14.27;;;;;;;-0.23;58.99;93994.75;4991749;28;20236;-79
2022/01/19 10:17:06;;;;;;;15.73;14.23;;;;;;;-0.37;57.71;93978.41;4988797;28;20247;-78
2022/01/19 10:19:42;;;;;;;15.03;13.43;;;;;;;-0.06;57.54;93978.16;4989371;28;20190;-84
2022/01/19 10:22:09;;;;;;;14.33;12.83;;;;;;;-0.17;57.75;93974.31;4989005;28;20231;-79
2022/01/19 10:24:36;;;;;;;14.77;13.33;;;;;;;-0.05;57.43;93975.41;4989034;28;20192;-81
2022/01/19 10:27:24;;;;;;;15.37;13.77;;;;;;;-0.21;57.66;93975.66;4988052;28;20228;-78
2022/01/19 10:30:03;;;;;;;16.23;14.03;;;;;;;-0.45;58.98;93959.78;4988183;28;20219;-82
2022/01/19 10:32:31;;;;;;;18.80;12.90;;;;;;;-0.18;58.42;93980.41;4987956;28;20235;-80
2022/01/19 10:34:56;;;;;;;19.67;13.40;;;;;;;-0.21;58.59;93967.94;4990184;28;20211;-78
2022/01/19 10:37:27;;;;;;;15.73;13.93;;;;;;;-0.23;58.19;93933.97;4990016;28;20235;-79
2022/01/19 10:39:57;;;;;;;14.90;13.43;;;;;;;-0.13;58.04;93960.16;4989699;28;21382;-82
2022/01/19 10:42:27;;;;;;;15.30;13.80;;;;;;;0.12;57.64;93968.31;4989974;28;20216;-80
2022/01/19 10:44:55;;;;;;;15.07;13.57;;;;;;;-0.13;58.03;93928.56;4989451;28;20199;-83
2022/01/19 10:47:42;;;;;;;15.67;14.23;;;;;;;0.11;57.87;93960.78;4990903;28;20283;-84
2022/01/19 10:50:11;;;;;;;16.67;14.87;;;;;;;0.17;57.73;93955.72;4991389;28;20199;-80
2022/01/19 10:52:41;;;;;;;15.17;13.77;;;;;;;0.23;57.15;93936.22;4986524;28;20223;-81
2022/01/19 10:55:10;;;;;;;16.63;13.77;;;;;;;0.31;56.51;93926.63;4989283;28;20208;-82
2022/01/19 10:57:37;;;;;;;16.50;13.53;;;;;;;0.03;56.92;93918.06;4989148;28;20236;-84
2022/01/19 11:00:18;;;;;;;15.97;14.40;;;;;;;0.00;57.35;93928.69;4989752;28;20239;-80
2022/01/19 11:02:44;;;;;;;15.53;13.87;;;;;;;0.24;56.83;93920.63;4990141;28;20227;-80
2022/01/19 11:05:10;;;;;;;19.20;15.20;;;;;;;0.29;57.29;93915.72;4990308;28;20200;-80
2022/01/19 11:07:37;;;;;;;15.47;14.07;;;;;;;0.14;55.97;93897.00;4989156;28;20324;-79
2022/01/19 11:10:12;;;;;;;15.60;14.10;;;;;;;0.36;55.99;93898.59;4989783;28;20184;-80
2022/01/19 11:12:48;;;;;;;14.83;13.30;;;;;;;0.38;56.49;93904.34;4988977;28;20239;-79
2022/01/19 11:15:17;;;;;;;15.20;13.90;;;;;;;0.19;55.49;93863.88;5021132;28;20282;-79
2022/01/19 11:17:43;;;;;;;15.77;13.53;;;;;;;0.43;56.01;93894.31;4990382;28;20219;-79
2022/01/19 11:20:13;;;;;;;18.00;13.97;;;;;;;0.13;55.72;93856.13;4988476;28;20184;-78
2022/01/19 11:23:03;;;;;;;15.63;14.30;;;;;;;0.21;55.89;93890.19;4990417;28;20243;-79
2022/01/19 11:25:38;;;;;;;20.70;13.00;;;;;;;0.39;55.68;93898.22;5005493;28;20199;-78
2022/01/19 11:28:04;;;;;;;14.33;13.10;;;;;;;0.02;55.83;93860.00;4989153;28;20194;-78
2022/01/19 11:30:32;;;;;;;15.10;13.50;;;;;;;0.23;55.81;93867.69;4989793;28;20188;-79
2022/01/19 11:33:25;;;;;;;17.50;15.67;;;;;;;0.46;56.24;93891.38;4993109;28;20184;-80
2022/01/19 11:35:57;;;;;;;14.80;13.43;;;;;;;0.11;55.79;93837.56;4989745;28;20232;-78
2022/01/19 11:38:44;;;;;;;18.10;15.10;;;;;;;0.50;56.05;93874.59;4989551;28;20200;-80
2022/01/19 11:41:09;;;;;;;15.47;14.00;;;;;;;0.68;55.21;93890.34;4988400;28;20232;-79
2022/01/19 11:43:38;;;;;;;16.10;13.80;;;;;;;0.62;55.85;93890.31;4991785;28;20293;-78
2022/01/19 11:46:24;;;;;;;17.33;14.83;;;;;;;0.72;56.43;93881.28;5004198;28;20235;-78
2022/01/19 11:48:50;;;;;;;17.33;15.53;;;;;;;0.77;57.27;93870.44;5012930;28;20229;-77
2022/01/19 11:51:28;;;;;;;16.33;13.97;;;;;;;0.22;57.86;93813.97;5012873;28;20227;-81
2022/01/19 11:54:15;;;;;;;16.93;15.33;;;;;;;0.36;57.03;93826.69;5014525;28;20262;-76
2022/01/19 11:56:59;;;;;;;18.23;15.13;;;;;;;0.81;56.58;93861.38;5010864;28;20261;-78
2022/01/19 11:59:45;;;;;;;15.67;14.13;;;;;;;1.18;55.87;93856.63;5014468;28;20222;-78
2022/01/19 12:02:28;;;;;;;20.03;14.83;;;;;;;1.20;55.10;93859.00;5013812;28;20243;-74
2022/01/19 12:04:59;;;;;;;17.70;15.40;;;;;;;1.33;54.55;93859.06;5012831;28;20179;-73
2022/01/19 12:07:37;;;;;;;18.97;14.80;;;;;;;1.23;55.24;93861.97;5011768;28;20227;-75
2022/01/19 12:10:08;;;;;;;17.10;15.40;;;;;;;1.23;55.27;93861.97;5013397;28;20270;-74
2022/01/19 12:12:41;;;;;;;16.83;15.43;;;;;;;1.27;54.71;93860.63;5012490;28;20223;-76
2022/01/19 12:15:09;;;;;;;16.93;15.53;;;;;;;1.17;54.04;93862.75;5013075;28;20210;-74
2022/01/19 12:18:07;;;;;;;14.73;13.27;;;;;;;1.37;53.15;93848.19;5013380;28;20231;-75
2022/01/19 12:20:52;;;;;;;16.30;14.13;;;;;;;1.24;53.94;93835.28;5014304;28;20247;-75
2022/01/19 12:23:30;;;;;;;15.43;14.03;;;;;;;1.10;53.12;93835.41;5012539;28;20191;-74
2022/01/19 12:25:57;;;;;;;16.77;15.10;;;;;;;1.37;53.98;93832.75;5012202;28;20235;-76
2022/01/19 12:28:48;;;;;;;17.13;15.33;;;;;;;1.39;53.94;93843.66;5012183;28;20202;-74
2022/01/19 12:31:29;;;;;;;22.70;15.60;;;;;;;1.32;54.97;93829.97;5011665;28;20235;-76
2022/01/19 12:34:07;;;;;;;15.73;14.20;;;;;;;1.61;53.97;93828.88;5012795;28;20207;-75
2022/01/19 12:36:59;;;;;;;21.60;16.03;;;;;;;1.46;54.40;93826.44;5028205;28;20253;-76
2022/01/19 12:39:24;;;;;;;19.10;15.23;;;;;;;1.33;53.70;93816.13;5008750;28;20225;-76
2022/01/19 12:42:03;;;;;;;16.23;14.93;;;;;;;1.38;54.50;93829.22;5012967;28;20235;-76
2022/01/19 12:44:37;;;;;;;17.90;16.30;;;;;;;1.35;55.05;93821.84;5011742;28;20293;-76
2022/01/19 12:47:24;;;;;;;20.37;17.23;;;;;;;1.54;54.32;93813.41;5023492;28;20231;-76